Flight Track Log - Related Links

Times and Time Zones

All times are in EDT time to prevent confusion due to time zone crossing. See the ASH3770 flight status page for this flight to view local times or setup timezone preferences in your user account.

Time Position Orientation Groundspeed Altitude Reporting Facility
EDT Latitude Longitude Course Direction KTS MPH feet Rate Location/Type
Mon 05:23:04 PM 36.8447 -76.2614 223° Southwest 213 245 3,100  Level Washington Center
Mon 05:24:05 PM 36.8653 -76.3214 293° West 251 289 5,300 2,529 Climbing Washington Center
Mon 05:25:00 PM 37.0864 -76.6033 300° West  Level FlightAware Approximate
Mon 05:25:05 PM 36.9086 -76.3944 307° West 264 304 8,200  Level Washington Center
Mon 05:26:00 PM 37.1340 -76.7079 300° West  Level FlightAware Approximate
Mon 05:26:06 PM 36.9519 -76.4678 306° West 274 315 10,800  Level Washington Center
Mon 05:27:00 PM 37.1815 -76.8127 300° West  Level FlightAware Approximate
Mon 05:27:04 PM 37.0014 -76.5542 306° West 287 330 12,200  Level Washington Center
Mon 05:28:05 PM 37.0589 -76.6486 307° West 315 362 13,900 900 Climbing Washington Center
Mon 05:29:04 PM 37.1144 -76.7483 305° West 341 392 14,000 50 Climbing Washington Center
Mon 05:30:05 PM 37.1717 -76.8481 306° West 347 399 14,000  Level Washington Center
Mon 05:31:06 PM 37.2292 -76.9456 307° West 352 405 14,000  Level Washington Center
Mon 05:32:06 PM 37.2883 -77.0511 305° West 364 419 14,000  Level Washington Center
Mon 05:33:04 PM 37.3600 -77.1569 310° West 359 413 14,000  Level Washington Center
Mon 05:34:04 PM 37.4319 -77.2394 318° Northwest 359 413 14,000  Level Washington Center
Mon 05:35:05 PM 37.5058 -77.3222 318° Northwest 359 413 14,000  Level Washington Center
Mon 05:36:06 PM 37.5989 -77.3769 335° Northwest 359 413 14,000 -303 Level Washington Center
Mon 05:37:04 PM 37.6900 -77.4261 337° Northwest 359 413 13,400 -763 Descending Washington Center
Mon 05:38:04 PM 37.7747 -77.4756 335° Northwest 352 405 12,500 -744 Descending Washington Center
Mon 05:39:05 PM 37.8514 -77.5142 338° Northwest 322 371 11,900 -246 Descending Washington Center
Mon 05:40:06 PM 37.9258 -77.5556 336° Northwest 303 349 12,000 -151 Climbing Washington Center
Mon 05:41:04 PM 38.0033 -77.5261 17° North 267 307 11,600 -706 Descending Washington Center
Mon 05:42:05 PM 38.0747 -77.4961 18° North 274 315 10,600 -793 Descending Washington Center
Mon 05:43:05 PM 38.1544 -77.4614 19° North 284 327 10,000 -303 Descending Washington Center
Mon 05:44:04 PM 38.2281 -77.4181 25° Northeast 289 333 10,000  Level Washington Center
Mon 05:45:05 PM 38.3017 -77.3750 25° Northeast 289 333 10,000 -694 Level Washington Center
Mon 05:46:05 PM 38.3792 -77.3556 11° North 289 333 8,600 -1,450 Descending Washington Center
Mon 05:47:05 PM 38.4583 -77.3603 357° North 277 319 7,100 -1,289 Descending Washington Center
Mon 05:48:06 PM 38.5314 -77.3644 357° North 271 312 6,000 -545 Descending Washington Center
Mon 05:49:06 PM 38.6064 -77.3664 359° North 271 312 6,000 -661 Level Washington Center
Mon 05:50:04 PM 38.6878 -77.3631 North 271 312 4,700 -870 Descending Washington Center
Mon 05:51:24 PM 38.7833 -77.3500 North 231 266 4,000 -290 Descending Potomac TRACON
Mon 05:52:29 PM 38.8500 -77.3500 360° North 230 265 4,000  Level Potomac TRACON
Mon 05:53:29 PM 38.9167 -77.3500 360° North 219 252 4,000  Level Potomac TRACON
Mon 05:54:24 PM 38.9667 -77.3500 360° North 198 228 4,000 -365 Level Potomac TRACON
Mon 05:55:24 PM 39.0167 -77.3500 360° North 194 223 3,300 -700 Descending Potomac TRACON

Login

Don't have an account? Register now (free) for customized features, flight alerts, and more!